sensor_id;sensor_type;location;lat;lon;timestamp;pressure;altitude;pressure_sealevel;temperature;humidity
18850;BME280;4989;48.772;9.154;2023-07-20T00:01:03;97853.53;;;21.98;51.86
18850;BME280;4989;48.772;9.154;2023-07-20T00:06:06;97861.56;;;21.73;51.57
18850;BME280;4989;48.772;9.154;2023-07-20T00:11:08;97860.59;;;22.15;52.14
18850;BME280;4989;48.772;9.154;2023-07-20T00:16:11;97858.56;;;21.93;50.34
18850;BME280;4989;48.772;9.154;2023-07-20T00:21:14;97848.03;;;22.31;52.38
18850;BME280;4989;48.772;9.154;2023-07-20T00:26:17;97858.00;;;22.91;52.00
18850;BME280;4989;48.772;9.154;2023-07-20T00:31:21;97863.59;;;22.57;53.10
18850;BME280;4989;48.772;9.154;2023-07-20T00:36:23;97855.00;;;22.66;48.84
18850;BME280;4989;48.772;9.154;2023-07-20T00:41:26;97857.31;;;22.11;49.86
18850;BME280;4989;48.772;9.154;2023-07-20T00:46:32;97863.06;;;21.74;50.69
18850;BME280;4989;48.772;9.154;2023-07-20T00:51:35;97861.84;;;22.59;49.91
18850;BME280;4989;48.772;9.154;2023-07-20T00:56:38;97871.88;;;21.84;50.50
18850;BME280;4989;48.772;9.154;2023-07-20T01:01:41;97875.22;;;21.28;51.95
18850;BME280;4989;48.772;9.154;2023-07-20T01:12:22;97871.47;;;21.31;52.45
18850;BME280;4989;48.772;9.154;2023-07-20T01:17:29;97873.41;;;21.14;56.16
18850;BME280;4989;48.772;9.154;2023-07-20T01:33:39;97872.19;;;20.72;54.63
18850;BME280;4989;48.772;9.154;2023-07-20T01:38:46;97879.25;;;20.73;55.30
18850;BME280;4989;48.772;9.154;2023-07-20T01:43:49;97872.44;;;20.42;55.77
18850;BME280;4989;48.772;9.154;2023-07-20T01:48:52;97866.66;;;20.72;55.58
18850;BME280;4989;48.772;9.154;2023-07-20T01:53:55;97859.72;;;20.50;56.61
18850;BME280;4989;48.772;9.154;2023-07-20T01:58:58;97865.53;;;20.52;56.11
18850;BME280;4989;48.772;9.154;2023-07-20T02:04:01;97867.38;;;21.10;62.15
18850;BME280;4989;48.772;9.154;2023-07-20T02:09:03;97867.09;;;21.84;56.79
18850;BME280;4989;48.772;9.154;2023-07-20T02:14:06;97870.63;;;21.90;55.94
18850;BME280;4989;48.772;9.154;2023-07-20T02:19:09;97874.91;;;21.15;54.24
18850;BME280;4989;48.772;9.154;2023-07-20T02:24:12;97876.72;;;20.75;55.83
18850;BME280;4989;48.772;9.154;2023-07-20T02:29:15;97871.78;;;20.90;56.23
18850;BME280;4989;48.772;9.154;2023-07-20T02:34:18;97869.16;;;21.18;55.09
18850;BME280;4989;48.772;9.154;2023-07-20T02:39:21;97874.84;;;20.55;56.71
18850;BME280;4989;48.772;9.154;2023-07-20T02:44:24;97871.34;;;21.68;61.26
18850;BME280;4989;48.772;9.154;2023-07-20T02:49:27;97880.16;;;23.02;54.21
18850;BME280;4989;48.772;9.154;2023-07-20T02:54:30;97878.94;;;22.69;53.33
18850;BME280;4989;48.772;9.154;2023-07-20T02:59:33;97884.72;;;22.94;54.34
18850;BME280;4989;48.772;9.154;2023-07-20T03:04:35;97892.34;;;22.43;51.85
18850;BME280;4989;48.772;9.154;2023-07-20T03:09:39;97887.66;;;20.95;55.17
18850;BME280;4989;48.772;9.154;2023-07-20T03:14:43;97888.50;;;20.06;58.41
18850;BME280;4989;48.772;9.154;2023-07-20T03:19:45;97891.59;;;19.88;59.38
18850;BME280;4989;48.772;9.154;2023-07-20T03:24:48;97892.81;;;20.45;59.08
18850;BME280;4989;48.772;9.154;2023-07-20T03:29:51;97895.50;;;20.65;58.01
18850;BME280;4989;48.772;9.154;2023-07-20T03:34:53;97896.81;;;21.89;59.06
18850;BME280;4989;48.772;9.154;2023-07-20T03:39:56;97896.38;;;22.19;53.89
18850;BME280;4989;48.772;9.154;2023-07-20T03:44:59;97896.63;;;21.33;56.69
18850;BME280;4989;48.772;9.154;2023-07-20T03:50:02;97897.34;;;22.33;55.41
18850;BME280;4989;48.772;9.154;2023-07-20T03:55:06;97906.06;;;23.21;56.94
18850;BME280;4989;48.772;9.154;2023-07-20T04:00:09;97905.78;;;23.30;56.05
18850;BME280;4989;48.772;9.154;2023-07-20T04:05:15;97909.66;;;22.94;55.44
18850;BME280;4989;48.772;9.154;2023-07-20T04:10:18;97911.44;;;22.85;52.79
18850;BME280;4989;48.772;9.154;2023-07-20T04:15:21;97915.19;;;21.98;56.75
18850;BME280;4989;48.772;9.154;2023-07-20T04:20:24;97916.00;;;22.32;58.82
18850;BME280;4989;48.772;9.154;2023-07-20T04:25:27;97917.47;;;22.90;54.46
18850;BME280;4989;48.772;9.154;2023-07-20T04:30:30;97909.97;;;22.28;54.13
18850;BME280;4989;48.772;9.154;2023-07-20T04:35:50;97921.00;;;22.96;59.22
18850;BME280;4989;48.772;9.154;2023-07-20T04:41:05;97919.69;;;23.14;57.34
18850;BME280;4989;48.772;9.154;2023-07-20T04:46:12;97914.84;;;23.37;56.37
18850;BME280;4989;48.772;9.154;2023-07-20T04:51:16;97918.28;;;23.54;53.22
18850;BME280;4989;48.772;9.154;2023-07-20T04:56:25;97923.06;;;22.33;53.68
18850;BME280;4989;48.772;9.154;2023-07-20T05:01:30;97916.16;;;21.84;55.69
18850;BME280;4989;48.772;9.154;2023-07-20T05:06:32;97927.44;;;20.72;57.85
18850;BME280;4989;48.772;9.154;2023-07-20T05:11:35;97917.63;;;20.71;58.77
18850;BME280;4989;48.772;9.154;2023-07-20T05:16:38;97911.78;;;20.57;59.66
18850;BME280;4989;48.772;9.154;2023-07-20T05:21:42;97915.41;;;21.83;59.85
18850;BME280;4989;48.772;9.154;2023-07-20T05:26:45;97924.47;;;21.24;57.61
18850;BME280;4989;48.772;9.154;2023-07-20T05:31:47;97915.47;;;21.35;59.24
18850;BME280;4989;48.772;9.154;2023-07-20T05:36:50;97906.75;;;21.47;57.34
18850;BME280;4989;48.772;9.154;2023-07-20T05:41:52;97912.31;;;21.59;60.59
18850;BME280;4989;48.772;9.154;2023-07-20T05:46:55;97915.91;;;21.76;56.60
18850;BME280;4989;48.772;9.154;2023-07-20T05:52:00;97912.44;;;21.33;58.15
18850;BME280;4989;48.772;9.154;2023-07-20T05:57:03;97918.97;;;21.30;58.44
18850;BME280;4989;48.772;9.154;2023-07-20T06:02:06;97923.56;;;20.95;59.51
18850;BME280;4989;48.772;9.154;2023-07-20T06:07:10;97914.56;;;21.00;59.99
18850;BME280;4989;48.772;9.154;2023-07-20T06:12:13;97924.44;;;21.78;58.17
18850;BME280;4989;48.772;9.154;2023-07-20T06:17:15;97926.94;;;21.65;57.90
18850;BME280;4989;48.772;9.154;2023-07-20T06:22:18;97926.94;;;21.16;60.42
18850;BME280;4989;48.772;9.154;2023-07-20T06:27:20;97929.88;;;21.44;59.93
18850;BME280;4989;48.772;9.154;2023-07-20T06:32:23;97925.88;;;21.45;59.89
18850;BME280;4989;48.772;9.154;2023-07-20T06:37:26;97925.84;;;20.97;61.54
18850;BME280;4989;48.772;9.154;2023-07-20T06:42:28;97925.53;;;20.89;61.93
18850;BME280;4989;48.772;9.154;2023-07-20T06:47:52;97925.50;;;21.32;61.04
18850;BME280;4989;48.772;9.154;2023-07-20T06:52:54;97921.72;;;21.30;61.78
18850;BME280;4989;48.772;9.154;2023-07-20T06:58:00;97923.44;;;21.70;60.59
18850;BME280;4989;48.772;9.154;2023-07-20T07:03:03;97922.03;;;22.20;58.44
18850;BME280;4989;48.772;9.154;2023-07-20T07:08:06;97924.06;;;22.19;58.29
18850;BME280;4989;48.772;9.154;2023-07-20T07:13:11;97911.22;;;23.53;57.67
18850;BME280;4989;48.772;9.154;2023-07-20T07:18:16;97910.13;;;24.14;53.63
18850;BME280;4989;48.772;9.154;2023-07-20T07:23:23;97910.03;;;23.43;56.20
18850;BME280;4989;48.772;9.154;2023-07-20T07:28:28;97911.13;;;24.17;52.09
18850;BME280;4989;48.772;9.154;2023-07-20T07:33:31;97910.16;;;22.86;54.96
18850;BME280;4989;48.772;9.154;2023-07-20T07:38:35;97909.97;;;22.39;57.18
18850;BME280;4989;48.772;9.154;2023-07-20T07:44:03;97900.38;;;22.63;56.57
18850;BME280;4989;48.772;9.154;2023-07-20T07:49:08;97901.78;;;23.20;54.68
18850;BME280;4989;48.772;9.154;2023-07-20T07:54:11;97893.91;;;24.84;52.28
18850;BME280;4989;48.772;9.154;2023-07-20T07:59:14;97896.03;;;24.48;53.02
18850;BME280;4989;48.772;9.154;2023-07-20T08:04:16;97896.69;;;25.09;49.15
18850;BME280;4989;48.772;9.154;2023-07-20T08:09:21;97896.88;;;23.96;51.71
18850;BME280;4989;48.772;9.154;2023-07-20T08:14:29;97899.97;;;23.87;51.66
18850;BME280;4989;48.772;9.154;2023-07-20T08:19:32;97892.69;;;24.19;49.34
18850;BME280;4989;48.772;9.154;2023-07-20T08:24:42;97890.47;;;24.48;52.43
18850;BME280;4989;48.772;9.154;2023-07-20T08:29:47;97890.28;;;24.35;52.58
18850;BME280;4989;48.772;9.154;2023-07-20T08:34:53;97887.28;;;25.93;49.40
18850;BME280;4989;48.772;9.154;2023-07-20T08:40:08;97904.50;;;26.43;47.01
18850;BME280;4989;48.772;9.154;2023-07-20T08:45:14;97898.09;;;26.16;44.54
18850;BME280;4989;48.772;9.154;2023-07-20T08:50:19;97900.69;;;24.89;47.01
18850;BME280;4989;48.772;9.154;2023-07-20T08:55:27;97903.91;;;24.68;50.83
18850;BME280;4989;48.772;9.154;2023-07-20T09:00:35;97893.19;;;26.67;47.56
18850;BME280;4989;48.772;9.154;2023-07-20T09:18:11;97884.53;;;26.84;46.47
18850;BME280;4989;48.772;9.154;2023-07-20T09:23:16;97883.19;;;27.78;44.23
18850;BME280;4989;48.772;9.154;2023-07-20T09:28:20;97874.13;;;27.25;45.40
18850;BME280;4989;48.772;9.154;2023-07-20T09:33:25;97879.03;;;26.52;46.71
18850;BME280;4989;48.772;9.154;2023-07-20T09:38:42;97887.34;;;26.84;46.48
18850;BME280;4989;48.772;9.154;2023-07-20T09:49:41;97876.63;;;29.09;38.36
18850;BME280;4989;48.772;9.154;2023-07-20T09:55:12;97883.03;;;27.23;45.04
18850;BME280;4989;48.772;9.154;2023-07-20T10:00:40;97868.66;;;26.79;43.96
18850;BME280;4989;48.772;9.154;2023-07-20T10:05:54;97871.56;;;27.00;40.89
18850;BME280;4989;48.772;9.154;2023-07-20T10:11:02;97875.63;;;27.26;41.00
18850;BME280;4989;48.772;9.154;2023-07-20T10:16:10;97862.75;;;28.96;40.91
18850;BME280;4989;48.772;9.154;2023-07-20T10:21:13;97859.88;;;27.62;42.98
18850;BME280;4989;48.772;9.154;2023-07-20T10:26:31;97860.91;;;28.07;42.17
18850;BME280;4989;48.772;9.154;2023-07-20T10:31:49;97847.03;;;29.65;36.59
18850;BME280;4989;48.772;9.154;2023-07-20T10:36:54;97844.84;;;30.71;34.43
18850;BME280;4989;48.772;9.154;2023-07-20T10:42:07;97834.75;;;30.61;33.98
18850;BME280;4989;48.772;9.154;2023-07-20T10:47:12;97838.88;;;31.31;36.27
18850;BME280;4989;48.772;9.154;2023-07-20T10:52:17;97834.75;;;30.15;38.29
18850;BME280;4989;48.772;9.154;2023-07-20T10:57:32;97833.91;;;29.60;36.88
18850;BME280;4989;48.772;9.154;2023-07-20T11:02:45;97829.50;;;30.80;32.59
18850;BME280;4989;48.772;9.154;2023-07-20T11:07:51;97821.00;;;29.57;38.53
18850;BME280;4989;48.772;9.154;2023-07-20T11:13:23;97822.38;;;28.34;40.96
18850;BME280;4989;48.772;9.154;2023-07-20T11:18:29;97813.59;;;31.31;34.88
18850;BME280;4989;48.772;9.154;2023-07-20T11:29:41;97815.25;;;31.74;31.27
18850;BME280;4989;48.772;9.154;2023-07-20T11:34:49;97807.81;;;31.29;35.81
18850;BME280;4989;48.772;9.154;2023-07-20T11:39:56;97808.84;;;32.14;34.54
18850;BME280;4989;48.772;9.154;2023-07-20T11:44:59;97805.13;;;33.06;31.49
18850;BME280;4989;48.772;9.154;2023-07-20T11:50:04;97799.00;;;32.48;33.98
18850;BME280;4989;48.772;9.154;2023-07-20T11:55:11;97788.38;;;32.13;34.35
18850;BME280;4989;48.772;9.154;2023-07-20T12:00:19;97791.97;;;32.31;33.26
18850;BME280;4989;48.772;9.154;2023-07-20T12:05:31;97794.66;;;33.16;31.76
18850;BME280;4989;48.772;9.154;2023-07-20T12:10:33;97783.78;;;32.01;34.39
18850;BME280;4989;48.772;9.154;2023-07-20T12:15:39;97775.69;;;29.97;36.68
18850;BME280;4989;48.772;9.154;2023-07-20T12:20:42;97759.13;;;31.59;35.14
18850;BME280;4989;48.772;9.154;2023-07-20T12:25:47;97773.38;;;31.61;34.99
18850;BME280;4989;48.772;9.154;2023-07-20T12:30:52;97772.00;;;32.79;33.14
18850;BME280;4989;48.772;9.154;2023-07-20T12:36:03;97766.69;;;32.49;33.04
18850;BME280;4989;48.772;9.154;2023-07-20T12:41:11;97755.38;;;30.75;35.45
18850;BME280;4989;48.772;9.154;2023-07-20T12:46:19;97748.94;;;30.04;36.83
18850;BME280;4989;48.772;9.154;2023-07-20T12:51:23;97751.22;;;32.15;33.58
18850;BME280;4989;48.772;9.154;2023-07-20T12:56:26;97750.50;;;30.91;35.30
18850;BME280;4989;48.772;9.154;2023-07-20T13:01:32;97723.66;;;30.50;35.22
18850;BME280;4989;48.772;9.154;2023-07-20T13:06:36;97727.50;;;30.85;35.18
18850;BME280;4989;48.772;9.154;2023-07-20T13:11:45;97720.16;;;31.30;34.69
18850;BME280;4989;48.772;9.154;2023-07-20T13:16:51;97729.56;;;32.43;32.23
18850;BME280;4989;48.772;9.154;2023-07-20T13:21:53;97721.88;;;31.83;29.32
18850;BME280;4989;48.772;9.154;2023-07-20T13:26:58;97719.59;;;30.91;32.28
18850;BME280;4989;48.772;9.154;2023-07-20T13:32:09;97717.72;;;30.38;35.52
18850;BME280;4989;48.772;9.154;2023-07-20T13:37:12;97713.34;;;30.52;35.06
18850;BME280;4989;48.772;9.154;2023-07-20T13:42:18;97714.69;;;31.65;33.91
18850;BME280;4989;48.772;9.154;2023-07-20T13:47:27;97711.94;;;31.57;34.38
18850;BME280;4989;48.772;9.154;2023-07-20T13:52:31;97709.16;;;31.49;34.39
18850;BME280;4989;48.772;9.154;2023-07-20T13:57:37;97689.06;;;30.95;34.90
18850;BME280;4989;48.772;9.154;2023-07-20T14:02:53;97684.16;;;31.03;34.50
18850;BME280;4989;48.772;9.154;2023-07-20T14:07:58;97680.22;;;31.07;34.46
18850;BME280;4989;48.772;9.154;2023-07-20T14:13:18;97672.94;;;31.61;30.11
18850;BME280;4989;48.772;9.154;2023-07-20T14:18:31;97664.56;;;30.48;35.53
18850;BME280;4989;48.772;9.154;2023-07-20T14:23:36;97663.53;;;30.20;35.86
18850;BME280;4989;48.772;9.154;2023-07-20T14:28:38;97664.50;;;31.36;32.69
18850;BME280;4989;48.772;9.154;2023-07-20T14:39:56;97663.47;;;31.16;35.29
18850;BME280;4989;48.772;9.154;2023-07-20T14:45:17;97662.75;;;31.16;35.49
18850;BME280;4989;48.772;9.154;2023-07-20T14:50:20;97664.16;;;31.32;30.03
18850;BME280;4989;48.772;9.154;2023-07-20T14:55:26;97654.50;;;31.18;34.48
18850;BME280;4989;48.772;9.154;2023-07-20T15:00:28;97656.69;;;30.46;37.37
18850;BME280;4989;48.772;9.154;2023-07-20T15:05:35;97658.66;;;30.05;37.88
18850;BME280;4989;48.772;9.154;2023-07-20T15:10:42;97641.84;;;29.98;34.57
18850;BME280;4989;48.772;9.154;2023-07-20T15:15:58;97640.13;;;30.10;38.56
18850;BME280;4989;48.772;9.154;2023-07-20T15:21:03;97629.34;;;29.37;39.27
18850;BME280;4989;48.772;9.154;2023-07-20T15:26:07;97622.81;;;29.27;39.84
18850;BME280;4989;48.772;9.154;2023-07-20T15:31:19;97630.47;;;29.11;40.22
18850;BME280;4989;48.772;9.154;2023-07-20T15:36:44;97623.56;;;29.12;40.06
18850;BME280;4989;48.772;9.154;2023-07-20T15:41:48;97620.94;;;29.07;35.06
18850;BME280;4989;48.772;9.154;2023-07-20T15:47:15;97605.94;;;28.89;39.91
18850;BME280;4989;48.772;9.154;2023-07-20T15:52:29;97609.63;;;28.68;40.10
18850;BME280;4989;48.772;9.154;2023-07-20T15:57:32;97600.09;;;28.20;40.96
18850;BME280;4989;48.772;9.154;2023-07-20T16:08:22;97590.28;;;27.90;41.20
18850;BME280;4989;48.772;9.154;2023-07-20T16:13:24;97596.91;;;27.79;40.61
18850;BME280;4989;48.772;9.154;2023-07-20T16:18:29;97585.97;;;27.89;40.76
18850;BME280;4989;48.772;9.154;2023-07-20T16:23:31;97583.22;;;27.97;40.28
18850;BME280;4989;48.772;9.154;2023-07-20T16:28:36;97585.81;;;27.95;40.75
18850;BME280;4989;48.772;9.154;2023-07-20T16:33:44;97589.38;;;27.74;41.24
18850;BME280;4989;48.772;9.154;2023-07-20T16:38:55;97586.00;;;27.68;41.44
18850;BME280;4989;48.772;9.154;2023-07-20T16:49:47;97581.81;;;27.54;41.16
18850;BME280;4989;48.772;9.154;2023-07-20T16:54:59;97585.72;;;27.51;41.16
18850;BME280;4989;48.772;9.154;2023-07-20T17:00:03;97589.78;;;27.50;41.39
18850;BME280;4989;48.772;9.154;2023-07-20T17:05:14;97576.91;;;27.47;42.04
18850;BME280;4989;48.772;9.154;2023-07-20T17:10:16;97578.81;;;27.52;42.67
18850;BME280;4989;48.772;9.154;2023-07-20T17:15:19;97585.50;;;27.49;42.05
18850;BME280;4989;48.772;9.154;2023-07-20T17:20:24;97574.25;;;27.41;41.63
18850;BME280;4989;48.772;9.154;2023-07-20T17:25:36;97579.81;;;27.33;41.85
18850;BME280;4989;48.772;9.154;2023-07-20T17:31:01;97582.81;;;27.35;41.53
18850;BME280;4989;48.772;9.154;2023-07-20T17:36:07;97588.56;;;27.37;41.55
18850;BME280;4989;48.772;9.154;2023-07-20T17:41:18;97588.72;;;27.32;40.95
18850;BME280;4989;48.772;9.154;2023-07-20T17:46:24;97590.16;;;27.25;41.30
18850;BME280;4989;48.772;9.154;2023-07-20T17:51:31;97594.44;;;27.26;41.15
18850;BME280;4989;48.772;9.154;2023-07-20T17:56:48;97590.16;;;27.25;40.87
18850;BME280;4989;48.772;9.154;2023-07-20T18:02:12;97589.94;;;27.23;41.22
18850;BME280;4989;48.772;9.154;2023-07-20T18:07:21;97586.28;;;27.28;41.64
18850;BME280;4989;48.772;9.154;2023-07-20T18:12:26;97588.66;;;27.24;40.87
18850;BME280;4989;48.772;9.154;2023-07-20T18:17:34;97584.19;;;27.21;42.37
18850;BME280;4989;48.772;9.154;2023-07-20T18:22:40;97582.66;;;27.20;42.12
18850;BME280;4989;48.772;9.154;2023-07-20T18:27:48;97584.81;;;27.14;43.59
18850;BME280;4989;48.772;9.154;2023-07-20T18:32:51;97591.03;;;27.20;43.39
18850;BME280;4989;48.772;9.154;2023-07-20T18:37:56;97589.16;;;27.15;43.34
18850;BME280;4989;48.772;9.154;2023-07-20T18:42:58;97584.06;;;27.13;43.41
18850;BME280;4989;48.772;9.154;2023-07-20T18:48:04;97584.06;;;27.13;43.14
18850;BME280;4989;48.772;9.154;2023-07-20T18:53:10;97584.03;;;27.06;43.21
18850;BME280;4989;48.772;9.154;2023-07-20T18:58:19;97583.25;;;26.84;34.96
18850;BME280;4989;48.772;9.154;2023-07-20T19:03:24;97588.31;;;26.52;36.23
18850;BME280;4989;48.772;9.154;2023-07-20T19:08:26;97585.31;;;26.49;37.63
18850;BME280;4989;48.772;9.154;2023-07-20T19:13:34;97591.63;;;26.84;43.86
18850;BME280;4989;48.772;9.154;2023-07-20T19:18:36;97598.22;;;26.94;43.73
18850;BME280;4989;48.772;9.154;2023-07-20T19:23:47;97594.69;;;26.94;43.49
18850;BME280;4989;48.772;9.154;2023-07-20T19:28:52;97592.03;;;26.88;44.19
18850;BME280;4989;48.772;9.154;2023-07-20T19:33:57;97599.56;;;26.80;38.48
18850;BME280;4989;48.772;9.154;2023-07-20T19:39:02;97608.97;;;26.69;44.21
18850;BME280;4989;48.772;9.154;2023-07-20T19:44:05;97601.75;;;26.74;45.01
18850;BME280;4989;48.772;9.154;2023-07-20T19:49:11;97613.97;;;26.71;45.57
18850;BME280;4989;48.772;9.154;2023-07-20T20:00:10;97617.03;;;26.60;44.66
18850;BME280;4989;48.772;9.154;2023-07-20T20:05:25;97624.22;;;26.42;43.98
18850;BME280;4989;48.772;9.154;2023-07-20T20:10:31;97619.41;;;26.42;44.79
18850;BME280;4989;48.772;9.154;2023-07-20T20:15:53;97621.22;;;26.40;44.46
18850;BME280;4989;48.772;9.154;2023-07-20T20:20:57;97613.19;;;26.36;44.02
18850;BME280;4989;48.772;9.154;2023-07-20T20:26:02;97621.13;;;26.32;42.18
18850;BME280;4989;48.772;9.154;2023-07-20T20:31:08;97613.31;;;26.31;43.79
18850;BME280;4989;48.772;9.154;2023-07-20T20:36:10;97609.34;;;26.26;44.28
18850;BME280;4989;48.772;9.154;2023-07-20T20:41:13;97616.44;;;26.27;45.53
18850;BME280;4989;48.772;9.154;2023-07-20T20:46:16;97607.88;;;26.12;44.16
18850;BME280;4989;48.772;9.154;2023-07-20T20:51:22;97613.38;;;25.58;39.63
18850;BME280;4989;48.772;9.154;2023-07-20T20:56:26;97611.47;;;25.80;46.12
18850;BME280;4989;48.772;9.154;2023-07-20T21:01:46;97607.44;;;26.08;46.02
18850;BME280;4989;48.772;9.154;2023-07-20T21:06:49;97614.59;;;25.90;43.77
18850;BME280;4989;48.772;9.154;2023-07-20T21:11:52;97604.09;;;25.96;45.70
18850;BME280;4989;48.772;9.154;2023-07-20T21:16:57;97610.66;;;25.85;42.04
18850;BME280;4989;48.772;9.154;2023-07-20T21:21:59;97603.56;;;25.71;44.38
18850;BME280;4989;48.772;9.154;2023-07-20T21:27:02;97608.28;;;25.76;43.99
18850;BME280;4989;48.772;9.154;2023-07-20T21:32:05;97608.09;;;25.87;45.49
18850;BME280;4989;48.772;9.154;2023-07-20T21:37:09;97594.88;;;25.74;45.02
18850;BME280;4989;48.772;9.154;2023-07-20T21:42:11;97592.81;;;25.48;44.28
18850;BME280;4989;48.772;9.154;2023-07-20T21:47:13;97594.13;;;25.61;45.90
18850;BME280;4989;48.772;9.154;2023-07-20T21:52:16;97592.38;;;25.44;43.54
18850;BME280;4989;48.772;9.154;2023-07-20T21:57:19;97591.81;;;25.32;44.82
18850;BME280;4989;48.772;9.154;2023-07-20T22:02:21;97589.59;;;25.44;44.90
18850;BME280;4989;48.772;9.154;2023-07-20T22:07:23;97586.78;;;25.31;46.08
18850;BME280;4989;48.772;9.154;2023-07-20T22:12:25;97585.84;;;25.42;45.62
18850;BME280;4989;48.772;9.154;2023-07-20T22:17:28;97585.97;;;25.36;43.88
18850;BME280;4989;48.772;9.154;2023-07-20T22:22:30;97587.88;;;25.28;44.67
18850;BME280;4989;48.772;9.154;2023-07-20T22:27:33;97589.59;;;25.31;43.57
18850;BME280;4989;48.772;9.154;2023-07-20T22:32:36;97593.66;;;25.30;45.91
18850;BME280;4989;48.772;9.154;2023-07-20T22:37:38;97586.16;;;25.25;45.77
18850;BME280;4989;48.772;9.154;2023-07-20T22:42:41;97600.16;;;25.19;46.05
18850;BME280;4989;48.772;9.154;2023-07-20T22:47:44;97581.22;;;25.18;45.70
18850;BME280;4989;48.772;9.154;2023-07-20T22:52:48;97588.03;;;25.17;46.80
18850;BME280;4989;48.772;9.154;2023-07-20T22:57:51;97585.88;;;25.09;45.19
18850;BME280;4989;48.772;9.154;2023-07-20T23:02:55;97588.72;;;24.72;45.73
18850;BME280;4989;48.772;9.154;2023-07-20T23:07:58;97590.44;;;24.37;42.57
18850;BME280;4989;48.772;9.154;2023-07-20T23:13:01;97586.34;;;24.43;44.17
18850;BME280;4989;48.772;9.154;2023-07-20T23:18:05;97589.38;;;23.77;43.13
18850;BME280;4989;48.772;9.154;2023-07-20T23:23:08;97583.94;;;23.91;47.15
18850;BME280;4989;48.772;9.154;2023-07-20T23:28:10;97579.03;;;24.59;46.20
18850;BME280;4989;48.772;9.154;2023-07-20T23:33:13;97572.31;;;24.11;43.74
18850;BME280;4989;48.772;9.154;2023-07-20T23:38:16;97568.31;;;23.88;46.43
18850;BME280;4989;48.772;9.154;2023-07-20T23:43:18;97563.97;;;24.11;46.58
18850;BME280;4989;48.772;9.154;2023-07-20T23:48:21;97556.38;;;23.68;45.94
18850;BME280;4989;48.772;9.154;2023-07-20T23:53:25;97550.63;;;23.91;50.52
18850;BME280;4989;48.772;9.154;2023-07-20T23:58:28;97553.03;;;24.76;51.13
